sensor_id;sensor_type;location;lat;lon;timestamp;temperature;humidity
75621;DHT22;64574;48.506;-2.750;2022-12-29T00:02:04;10.00;75.40
75621;DHT22;64574;48.506;-2.750;2022-12-29T00:04:29;10.00;75.00
75621;DHT22;64574;48.506;-2.750;2022-12-29T00:06:55;10.00;74.90
75621;DHT22;64574;48.506;-2.750;2022-12-29T00:09:21;10.00;74.80
75621;DHT22;64574;48.506;-2.750;2022-12-29T00:11:47;9.90;75.20
75621;DHT22;64574;48.506;-2.750;2022-12-29T00:14:13;9.90;75.40
75621;DHT22;64574;48.506;-2.750;2022-12-29T00:16:57;9.90;75.70
75621;DHT22;64574;48.506;-2.750;2022-12-29T00:19:23;10.00;75.80
75621;DHT22;64574;48.506;-2.750;2022-12-29T00:22:10;9.90;76.20
75621;DHT22;64574;48.506;-2.750;2022-12-29T00:24:54;9.90;76.70
75621;DHT22;64574;48.506;-2.750;2022-12-29T00:27:39;9.90;76.80
75621;DHT22;64574;48.506;-2.750;2022-12-29T00:30:23;9.90;76.50
75621;DHT22;64574;48.506;-2.750;2022-12-29T00:33:19;9.80;75.50
75621;DHT22;64574;48.506;-2.750;2022-12-29T00:36:12;9.70;75.10
75621;DHT22;64574;48.506;-2.750;2022-12-29T00:38:40;9.70;74.90
75621;DHT22;64574;48.506;-2.750;2022-12-29T00:41:26;9.70;74.30
75621;DHT22;64574;48.506;-2.750;2022-12-29T00:44:12;9.70;73.60
75621;DHT22;64574;48.506;-2.750;2022-12-29T00:46:40;9.60;73.40
75621;DHT22;64574;48.506;-2.750;2022-12-29T00:49:07;9.60;73.80
75621;DHT22;64574;48.506;-2.750;2022-12-29T00:51:52;9.60;74.10
75621;DHT22;64574;48.506;-2.750;2022-12-29T00:54:18;9.60;74.30
75621;DHT22;64574;48.506;-2.750;2022-12-29T00:56:49;9.60;74.10
75621;DHT22;64574;48.506;-2.750;2022-12-29T00:59:14;9.60;74.00
75621;DHT22;64574;48.506;-2.750;2022-12-29T01:01:41;9.60;73.90
75621;DHT22;64574;48.506;-2.750;2022-12-29T01:04:07;9.60;73.70
75621;DHT22;64574;48.506;-2.750;2022-12-29T01:06:33;9.50;73.60
75621;DHT22;64574;48.506;-2.750;2022-12-29T01:08:59;9.50;73.80
75621;DHT22;64574;48.506;-2.750;2022-12-29T01:11:44;9.50;74.00
75621;DHT22;64574;48.506;-2.750;2022-12-29T01:14:09;9.50;74.20
75621;DHT22;64574;48.506;-2.750;2022-12-29T01:16:35;9.50;74.60
75621;DHT22;64574;48.506;-2.750;2022-12-29T01:19:02;9.40;75.10
75621;DHT22;64574;48.506;-2.750;2022-12-29T01:21:27;9.40;75.20
75621;DHT22;64574;48.506;-2.750;2022-12-29T01:23:53;9.40;75.50
75621;DHT22;64574;48.506;-2.750;2022-12-29T01:26:19;9.40;75.50
75621;DHT22;64574;48.506;-2.750;2022-12-29T01:28:45;9.40;75.30
75621;DHT22;64574;48.506;-2.750;2022-12-29T01:31:12;9.40;75.00
75621;DHT22;64574;48.506;-2.750;2022-12-29T01:33:38;9.40;74.50
75621;DHT22;64574;48.506;-2.750;2022-12-29T01:36:06;9.40;74.00
75621;DHT22;64574;48.506;-2.750;2022-12-29T01:38:32;9.40;73.80
75621;DHT22;64574;48.506;-2.750;2022-12-29T01:40:58;9.40;73.70
75621;DHT22;64574;48.506;-2.750;2022-12-29T01:48:40;9.40;72.80
75621;DHT22;64574;48.506;-2.750;2022-12-29T01:51:06;9.40;72.80
75621;DHT22;64574;48.506;-2.750;2022-12-29T01:53:34;9.40;72.50
75621;DHT22;64574;48.506;-2.750;2022-12-29T01:56:04;9.40;72.70
75621;DHT22;64574;48.506;-2.750;2022-12-29T01:58:39;9.40;72.50
75621;DHT22;64574;48.506;-2.750;2022-12-29T02:01:07;9.40;72.80
75621;DHT22;64574;48.506;-2.750;2022-12-29T02:03:33;9.40;72.80
75621;DHT22;64574;48.506;-2.750;2022-12-29T02:08:29;9.40;73.20
75621;DHT22;64574;48.506;-2.750;2022-12-29T02:10:56;9.40;73.50
75621;DHT22;64574;48.506;-2.750;2022-12-29T02:13:24;9.20;74.00
75621;DHT22;64574;48.506;-2.750;2022-12-29T02:16:12;9.20;74.50
75621;DHT22;64574;48.506;-2.750;2022-12-29T02:19:03;9.20;74.90
75621;DHT22;64574;48.506;-2.750;2022-12-29T02:32:54;9.20;74.40
75621;DHT22;64574;48.506;-2.750;2022-12-29T02:38:10;9.20;74.20
75621;DHT22;64574;48.506;-2.750;2022-12-29T02:43:38;9.20;74.10
75621;DHT22;64574;48.506;-2.750;2022-12-29T02:46:21;9.30;73.50
75621;DHT22;64574;48.506;-2.750;2022-12-29T02:49:09;9.30;73.70
75621;DHT22;64574;48.506;-2.750;2022-12-29T02:52:00;9.30;73.60
75621;DHT22;64574;48.506;-2.750;2022-12-29T02:54:26;9.30;73.50
75621;DHT22;64574;48.506;-2.750;2022-12-29T03:10:32;9.20;74.70
75621;DHT22;64574;48.506;-2.750;2022-12-29T03:13:12;9.10;74.90
75621;DHT22;64574;48.506;-2.750;2022-12-29T03:21:32;9.10;74.50
75621;DHT22;64574;48.506;-2.750;2022-12-29T03:24:20;9.20;74.40
75621;DHT22;64574;48.506;-2.750;2022-12-29T03:26:47;9.10;74.50
75621;DHT22;64574;48.506;-2.750;2022-12-29T03:29:16;9.00;74.50
75621;DHT22;64574;48.506;-2.750;2022-12-29T03:31:42;9.10;73.90
75621;DHT22;64574;48.506;-2.750;2022-12-29T03:34:10;9.10;73.80
75621;DHT22;64574;48.506;-2.750;2022-12-29T03:36:44;9.10;73.60
75621;DHT22;64574;48.506;-2.750;2022-12-29T03:39:13;9.20;73.50
75621;DHT22;64574;48.506;-2.750;2022-12-29T03:41:41;9.20;73.10
75621;DHT22;64574;48.506;-2.750;2022-12-29T03:44:08;9.10;72.90
75621;DHT22;64574;48.506;-2.750;2022-12-29T03:46:35;9.10;72.70
75621;DHT22;64574;48.506;-2.750;2022-12-29T03:49:00;9.00;72.80
75621;DHT22;64574;48.506;-2.750;2022-12-29T03:51:26;9.00;72.90
75621;DHT22;64574;48.506;-2.750;2022-12-29T03:53:51;9.00;73.00
75621;DHT22;64574;48.506;-2.750;2022-12-29T03:56:17;9.00;73.20
75621;DHT22;64574;48.506;-2.750;2022-12-29T03:58:43;9.00;73.10
75621;DHT22;64574;48.506;-2.750;2022-12-29T04:01:08;9.00;73.10
75621;DHT22;64574;48.506;-2.750;2022-12-29T04:03:34;9.00;73.20
75621;DHT22;64574;48.506;-2.750;2022-12-29T04:06:00;8.90;73.40
75621;DHT22;64574;48.506;-2.750;2022-12-29T04:08:25;9.00;73.30
75621;DHT22;64574;48.506;-2.750;2022-12-29T04:10:51;8.90;73.40
75621;DHT22;64574;48.506;-2.750;2022-12-29T04:13:17;8.90;73.20
75621;DHT22;64574;48.506;-2.750;2022-12-29T04:15:43;8.90;72.90
75621;DHT22;64574;48.506;-2.750;2022-12-29T04:18:11;8.90;72.70
75621;DHT22;64574;48.506;-2.750;2022-12-29T04:20:36;9.00;72.60
75621;DHT22;64574;48.506;-2.750;2022-12-29T04:23:20;8.90;72.20
75621;DHT22;64574;48.506;-2.750;2022-12-29T04:25:46;8.90;71.80
75621;DHT22;64574;48.506;-2.750;2022-12-29T04:28:15;8.90;71.80
75621;DHT22;64574;48.506;-2.750;2022-12-29T04:30:42;8.90;71.60
75621;DHT22;64574;48.506;-2.750;2022-12-29T04:33:07;8.90;71.60
75621;DHT22;64574;48.506;-2.750;2022-12-29T04:35:33;8.80;71.60
75621;DHT22;64574;48.506;-2.750;2022-12-29T04:37:59;8.80;71.50
75621;DHT22;64574;48.506;-2.750;2022-12-29T04:40:25;8.80;71.60
75621;DHT22;64574;48.506;-2.750;2022-12-29T04:42:50;8.80;71.50
75621;DHT22;64574;48.506;-2.750;2022-12-29T04:45:16;8.80;71.60
75621;DHT22;64574;48.506;-2.750;2022-12-29T04:47:42;8.80;71.50
75621;DHT22;64574;48.506;-2.750;2022-12-29T04:50:08;8.80;71.40
75621;DHT22;64574;48.506;-2.750;2022-12-29T04:52:34;8.80;71.60
75621;DHT22;64574;48.506;-2.750;2022-12-29T04:54:59;8.70;71.80
75621;DHT22;64574;48.506;-2.750;2022-12-29T04:57:25;8.80;71.90
75621;DHT22;64574;48.506;-2.750;2022-12-29T04:59:51;8.90;71.80
75621;DHT22;64574;48.506;-2.750;2022-12-29T05:02:17;8.80;72.30
75621;DHT22;64574;48.506;-2.750;2022-12-29T05:04:43;8.80;72.50
75621;DHT22;64574;48.506;-2.750;2022-12-29T05:07:08;8.70;72.80
75621;DHT22;64574;48.506;-2.750;2022-12-29T05:09:34;8.60;72.80
75621;DHT22;64574;48.506;-2.750;2022-12-29T05:11:59;8.70;72.70
75621;DHT22;64574;48.506;-2.750;2022-12-29T05:14:25;8.60;72.50
75621;DHT22;64574;48.506;-2.750;2022-12-29T05:16:51;8.70;72.60
75621;DHT22;64574;48.506;-2.750;2022-12-29T05:19:16;8.70;72.50
75621;DHT22;64574;48.506;-2.750;2022-12-29T05:21:42;8.60;72.70
75621;DHT22;64574;48.506;-2.750;2022-12-29T05:24:08;8.70;72.60
75621;DHT22;64574;48.506;-2.750;2022-12-29T05:26:34;8.60;72.60
75621;DHT22;64574;48.506;-2.750;2022-12-29T05:29:00;8.60;72.60
75621;DHT22;64574;48.506;-2.750;2022-12-29T05:31:26;8.60;72.30
75621;DHT22;64574;48.506;-2.750;2022-12-29T05:33:52;8.60;72.30
75621;DHT22;64574;48.506;-2.750;2022-12-29T05:36:18;8.60;72.20
75621;DHT22;64574;48.506;-2.750;2022-12-29T05:38:43;8.60;72.10
75621;DHT22;64574;48.506;-2.750;2022-12-29T05:41:09;8.60;71.90
75621;DHT22;64574;48.506;-2.750;2022-12-29T05:43:35;8.50;71.50
75621;DHT22;64574;48.506;-2.750;2022-12-29T05:46:01;8.50;71.60
75621;DHT22;64574;48.506;-2.750;2022-12-29T05:48:28;8.50;71.50
75621;DHT22;64574;48.506;-2.750;2022-12-29T05:50:53;8.50;71.20
75621;DHT22;64574;48.506;-2.750;2022-12-29T05:53:19;8.50;71.00
75621;DHT22;64574;48.506;-2.750;2022-12-29T05:55:47;8.50;70.80
75621;DHT22;64574;48.506;-2.750;2022-12-29T05:58:14;8.60;70.60
75621;DHT22;64574;48.506;-2.750;2022-12-29T06:00:40;8.50;70.40
75621;DHT22;64574;48.506;-2.750;2022-12-29T06:03:05;8.50;70.50
75621;DHT22;64574;48.506;-2.750;2022-12-29T06:05:31;8.50;70.50
75621;DHT22;64574;48.506;-2.750;2022-12-29T06:07:56;8.40;70.50
75621;DHT22;64574;48.506;-2.750;2022-12-29T06:10:22;8.50;70.70
75621;DHT22;64574;48.506;-2.750;2022-12-29T06:12:48;8.60;70.40
75621;DHT22;64574;48.506;-2.750;2022-12-29T06:15:13;8.50;70.50
75621;DHT22;64574;48.506;-2.750;2022-12-29T06:17:39;8.50;70.70
75621;DHT22;64574;48.506;-2.750;2022-12-29T06:20:06;8.50;70.90
75621;DHT22;64574;48.506;-2.750;2022-12-29T06:22:32;8.40;71.10
75621;DHT22;64574;48.506;-2.750;2022-12-29T06:24:58;8.40;71.30
75621;DHT22;64574;48.506;-2.750;2022-12-29T06:27:24;8.40;71.50
75621;DHT22;64574;48.506;-2.750;2022-12-29T06:29:49;8.30;71.90
75621;DHT22;64574;48.506;-2.750;2022-12-29T06:32:15;8.30;72.10
75621;DHT22;64574;48.506;-2.750;2022-12-29T06:34:41;8.40;72.40
75621;DHT22;64574;48.506;-2.750;2022-12-29T06:37:07;8.40;72.30
75621;DHT22;64574;48.506;-2.750;2022-12-29T06:39:32;8.40;72.70
75621;DHT22;64574;48.506;-2.750;2022-12-29T06:41:58;8.40;72.90
75621;DHT22;64574;48.506;-2.750;2022-12-29T06:44:24;8.40;73.20
75621;DHT22;64574;48.506;-2.750;2022-12-29T06:46:49;8.40;73.30
75621;DHT22;64574;48.506;-2.750;2022-12-29T06:49:15;8.20;73.80
75621;DHT22;64574;48.506;-2.750;2022-12-29T06:51:41;8.20;74.10
75621;DHT22;64574;48.506;-2.750;2022-12-29T06:54:07;8.20;74.20
75621;DHT22;64574;48.506;-2.750;2022-12-29T06:56:32;8.10;74.60
75621;DHT22;64574;48.506;-2.750;2022-12-29T06:58:58;8.10;74.70
75621;DHT22;64574;48.506;-2.750;2022-12-29T07:01:25;8.10;74.70
75621;DHT22;64574;48.506;-2.750;2022-12-29T07:03:51;8.10;75.00
75621;DHT22;64574;48.506;-2.750;2022-12-29T07:06:16;8.20;74.90
75621;DHT22;64574;48.506;-2.750;2022-12-29T07:08:42;8.20;74.90
75621;DHT22;64574;48.506;-2.750;2022-12-29T07:11:08;8.10;74.90
75621;DHT22;64574;48.506;-2.750;2022-12-29T07:13:34;8.10;75.20
75621;DHT22;64574;48.506;-2.750;2022-12-29T07:16:04;8.00;75.10
75621;DHT22;64574;48.506;-2.750;2022-12-29T07:18:30;8.20;75.00
75621;DHT22;64574;48.506;-2.750;2022-12-29T07:20:55;8.10;74.90
75621;DHT22;64574;48.506;-2.750;2022-12-29T07:23:21;8.10;75.10
75621;DHT22;64574;48.506;-2.750;2022-12-29T07:25:46;8.10;74.80
75621;DHT22;64574;48.506;-2.750;2022-12-29T07:28:12;8.10;74.80
75621;DHT22;64574;48.506;-2.750;2022-12-29T07:30:39;8.10;74.80
75621;DHT22;64574;48.506;-2.750;2022-12-29T07:33:05;8.10;74.80
75621;DHT22;64574;48.506;-2.750;2022-12-29T07:35:30;8.00;74.80
75621;DHT22;64574;48.506;-2.750;2022-12-29T07:37:56;8.00;74.90
75621;DHT22;64574;48.506;-2.750;2022-12-29T07:40:22;8.10;74.80
75621;DHT22;64574;48.506;-2.750;2022-12-29T07:42:47;8.00;74.60
75621;DHT22;64574;48.506;-2.750;2022-12-29T07:45:13;8.10;74.50
75621;DHT22;64574;48.506;-2.750;2022-12-29T07:47:38;8.00;74.30
75621;DHT22;64574;48.506;-2.750;2022-12-29T07:50:04;8.00;74.10
75621;DHT22;64574;48.506;-2.750;2022-12-29T07:52:30;8.00;73.90
75621;DHT22;64574;48.506;-2.750;2022-12-29T07:54:56;8.10;73.50
75621;DHT22;64574;48.506;-2.750;2022-12-29T07:57:24;8.00;73.70
75621;DHT22;64574;48.506;-2.750;2022-12-29T07:59:50;8.00;73.50
75621;DHT22;64574;48.506;-2.750;2022-12-29T08:02:16;8.00;73.50
75621;DHT22;64574;48.506;-2.750;2022-12-29T08:04:41;8.00;73.80
75621;DHT22;64574;48.506;-2.750;2022-12-29T08:07:07;8.00;73.90
75621;DHT22;64574;48.506;-2.750;2022-12-29T08:09:32;8.00;73.40
75621;DHT22;64574;48.506;-2.750;2022-12-29T08:11:58;8.00;73.90
75621;DHT22;64574;48.506;-2.750;2022-12-29T08:14:24;8.00;73.60
75621;DHT22;64574;48.506;-2.750;2022-12-29T08:16:49;8.00;73.40
75621;DHT22;64574;48.506;-2.750;2022-12-29T08:19:15;8.10;73.30
75621;DHT22;64574;48.506;-2.750;2022-12-29T08:21:41;8.10;73.30
75621;DHT22;64574;48.506;-2.750;2022-12-29T08:24:07;8.10;73.50
75621;DHT22;64574;48.506;-2.750;2022-12-29T08:26:33;8.10;73.50
75621;DHT22;64574;48.506;-2.750;2022-12-29T08:28:59;8.30;73.20
75621;DHT22;64574;48.506;-2.750;2022-12-29T08:31:24;8.30;73.10
75621;DHT22;64574;48.506;-2.750;2022-12-29T08:33:50;8.30;73.10
75621;DHT22;64574;48.506;-2.750;2022-12-29T08:36:16;8.30;73.30
75621;DHT22;64574;48.506;-2.750;2022-12-29T08:38:42;8.20;73.50
75621;DHT22;64574;48.506;-2.750;2022-12-29T08:41:08;8.20;73.80
75621;DHT22;64574;48.506;-2.750;2022-12-29T08:43:33;8.10;73.50
75621;DHT22;64574;48.506;-2.750;2022-12-29T08:45:59;8.10;73.90
75621;DHT22;64574;48.506;-2.750;2022-12-29T08:48:25;8.10;73.90
75621;DHT22;64574;48.506;-2.750;2022-12-29T08:50:51;8.10;74.00
75621;DHT22;64574;48.506;-2.750;2022-12-29T08:53:17;8.10;73.60
75621;DHT22;64574;48.506;-2.750;2022-12-29T08:55:47;8.10;73.60
75621;DHT22;64574;48.506;-2.750;2022-12-29T08:58:19;8.20;73.30
75621;DHT22;64574;48.506;-2.750;2022-12-29T09:00:45;8.20;73.10
75621;DHT22;64574;48.506;-2.750;2022-12-29T09:03:10;8.10;73.30
75621;DHT22;64574;48.506;-2.750;2022-12-29T09:05:36;8.10;73.40
75621;DHT22;64574;48.506;-2.750;2022-12-29T09:08:02;8.20;73.10
75621;DHT22;64574;48.506;-2.750;2022-12-29T09:10:28;8.20;73.20
75621;DHT22;64574;48.506;-2.750;2022-12-29T09:12:54;8.10;73.50
75621;DHT22;64574;48.506;-2.750;2022-12-29T09:15:19;8.20;73.10
75621;DHT22;64574;48.506;-2.750;2022-12-29T09:17:45;8.20;73.10
75621;DHT22;64574;48.506;-2.750;2022-12-29T09:20:15;8.20;73.00
75621;DHT22;64574;48.506;-2.750;2022-12-29T09:22:43;8.30;72.90
75621;DHT22;64574;48.506;-2.750;2022-12-29T09:25:09;8.30;72.60
75621;DHT22;64574;48.506;-2.750;2022-12-29T09:27:36;8.20;72.90
75621;DHT22;64574;48.506;-2.750;2022-12-29T09:30:06;8.20;73.00
75621;DHT22;64574;48.506;-2.750;2022-12-29T09:32:33;8.20;73.00
75621;DHT22;64574;48.506;-2.750;2022-12-29T09:34:59;8.30;73.00
75621;DHT22;64574;48.506;-2.750;2022-12-29T09:37:25;8.30;72.70
75621;DHT22;64574;48.506;-2.750;2022-12-29T09:39:50;8.30;72.60
75621;DHT22;64574;48.506;-2.750;2022-12-29T09:42:25;8.30;72.70
75621;DHT22;64574;48.506;-2.750;2022-12-29T09:47:21;8.30;72.50
75621;DHT22;64574;48.506;-2.750;2022-12-29T09:49:51;8.40;72.20
75621;DHT22;64574;48.506;-2.750;2022-12-29T09:52:22;8.40;72.10
75621;DHT22;64574;48.506;-2.750;2022-12-29T09:54:52;8.50;71.70
75621;DHT22;64574;48.506;-2.750;2022-12-29T09:57:43;8.50;71.60
75621;DHT22;64574;48.506;-2.750;2022-12-29T10:00:18;8.50;71.60
75621;DHT22;64574;48.506;-2.750;2022-12-29T10:02:54;8.50;71.60
75621;DHT22;64574;48.506;-2.750;2022-12-29T10:11:01;8.50;71.60
75621;DHT22;64574;48.506;-2.750;2022-12-29T10:16:59;8.50;71.50
75621;DHT22;64574;48.506;-2.750;2022-12-29T10:24:40;8.60;71.00
75621;DHT22;64574;48.506;-2.750;2022-12-29T10:27:12;8.60;71.20
75621;DHT22;64574;48.506;-2.750;2022-12-29T10:29:43;8.60;71.10
75621;DHT22;64574;48.506;-2.750;2022-12-29T10:32:36;8.60;70.80
75621;DHT22;64574;48.506;-2.750;2022-12-29T10:35:22;8.60;70.70
75621;DHT22;64574;48.506;-2.750;2022-12-29T10:40:51;8.80;70.60
75621;DHT22;64574;48.506;-2.750;2022-12-29T10:43:31;8.80;70.50
75621;DHT22;64574;48.506;-2.750;2022-12-29T10:45:59;8.90;70.70
75621;DHT22;64574;48.506;-2.750;2022-12-29T10:48:34;8.90;70.80
75621;DHT22;64574;48.506;-2.750;2022-12-29T10:51:02;9.00;70.90
75621;DHT22;64574;48.506;-2.750;2022-12-29T10:53:45;8.90;70.50
75621;DHT22;64574;48.506;-2.750;2022-12-29T10:56:36;8.90;70.70
75621;DHT22;64574;48.506;-2.750;2022-12-29T10:59:16;8.90;70.70
75621;DHT22;64574;48.506;-2.750;2022-12-29T11:07:08;9.00;70.20
75621;DHT22;64574;48.506;-2.750;2022-12-29T11:09:36;9.00;70.20
75621;DHT22;64574;48.506;-2.750;2022-12-29T11:14:47;9.10;69.40
75621;DHT22;64574;48.506;-2.750;2022-12-29T11:17:17;9.10;69.10
75621;DHT22;64574;48.506;-2.750;2022-12-29T11:19:43;9.20;69.30
75621;DHT22;64574;48.506;-2.750;2022-12-29T11:24:49;9.20;69.10
75621;DHT22;64574;48.506;-2.750;2022-12-29T11:27:22;9.20;68.80
75621;DHT22;64574;48.506;-2.750;2022-12-29T11:29:53;9.40;68.70
75621;DHT22;64574;48.506;-2.750;2022-12-29T11:32:19;9.40;68.00
75621;DHT22;64574;48.506;-2.750;2022-12-29T11:34:46;9.40;68.40
75621;DHT22;64574;48.506;-2.750;2022-12-29T11:37:18;9.40;68.40
75621;DHT22;64574;48.506;-2.750;2022-12-29T11:39:56;9.40;68.70
75621;DHT22;64574;48.506;-2.750;2022-12-29T11:42:29;9.50;68.10
75621;DHT22;64574;48.506;-2.750;2022-12-29T11:45:16;9.50;68.00
75621;DHT22;64574;48.506;-2.750;2022-12-29T11:47:47;9.50;67.00
75621;DHT22;64574;48.506;-2.750;2022-12-29T11:50:22;9.60;67.00
75621;DHT22;64574;48.506;-2.750;2022-12-29T11:52:56;9.60;67.30
75621;DHT22;64574;48.506;-2.750;2022-12-29T11:55:23;9.60;67.10
75621;DHT22;64574;48.506;-2.750;2022-12-29T11:57:52;9.70;66.90
75621;DHT22;64574;48.506;-2.750;2022-12-29T12:00:21;9.80;66.60
75621;DHT22;64574;48.506;-2.750;2022-12-29T12:02:54;9.80;66.90
75621;DHT22;64574;48.506;-2.750;2022-12-29T12:05:28;9.90;66.20
75621;DHT22;64574;48.506;-2.750;2022-12-29T12:08:27;10.00;66.30
75621;DHT22;64574;48.506;-2.750;2022-12-29T12:11:09;10.00;66.30
75621;DHT22;64574;48.506;-2.750;2022-12-29T12:16:26;10.00;66.40
75621;DHT22;64574;48.506;-2.750;2022-12-29T12:19:02;10.00;66.60
75621;DHT22;64574;48.506;-2.750;2022-12-29T12:21:38;10.00;66.70
75621;DHT22;64574;48.506;-2.750;2022-12-29T12:24:11;9.90;68.80
75621;DHT22;64574;48.506;-2.750;2022-12-29T12:29:39;9.40;74.10
75621;DHT22;64574;48.506;-2.750;2022-12-29T12:34:54;9.00;78.20
75621;DHT22;64574;48.506;-2.750;2022-12-29T12:43:14;8.90;76.50
75621;DHT22;64574;48.506;-2.750;2022-12-29T12:52:32;8.80;75.60
75621;DHT22;64574;48.506;-2.750;2022-12-29T13:00:18;8.90;75.70
75621;DHT22;64574;48.506;-2.750;2022-12-29T13:03:13;8.80;75.90
75621;DHT22;64574;48.506;-2.750;2022-12-29T13:06:10;8.80;76.50
75621;DHT22;64574;48.506;-2.750;2022-12-29T13:08:47;8.90;76.40
75621;DHT22;64574;48.506;-2.750;2022-12-29T13:11:24;8.90;76.30
75621;DHT22;64574;48.506;-2.750;2022-12-29T13:19:17;9.10;75.50
75621;DHT22;64574;48.506;-2.750;2022-12-29T13:22:15;9.20;74.80
75621;DHT22;64574;48.506;-2.750;2022-12-29T13:27:53;9.00;71.80
75621;DHT22;64574;48.506;-2.750;2022-12-29T13:30:26;9.00;72.00
75621;DHT22;64574;48.506;-2.750;2022-12-29T13:36:05;9.10;71.30
75621;DHT22;64574;48.506;-2.750;2022-12-29T13:38:39;9.00;70.80
75621;DHT22;64574;48.506;-2.750;2022-12-29T13:41:13;9.00;69.60
75621;DHT22;64574;48.506;-2.750;2022-12-29T13:43:41;9.00;69.20
75621;DHT22;64574;48.506;-2.750;2022-12-29T13:46:27;9.00;69.40
75621;DHT22;64574;48.506;-2.750;2022-12-29T13:49:01;9.00;69.70
75621;DHT22;64574;48.506;-2.750;2022-12-29T13:51:28;9.00;68.90
75621;DHT22;64574;48.506;-2.750;2022-12-29T13:56:35;9.00;68.90
75621;DHT22;64574;48.506;-2.750;2022-12-29T13:59:17;9.00;68.70
75621;DHT22;64574;48.506;-2.750;2022-12-29T14:02:02;9.00;68.20
75621;DHT22;64574;48.506;-2.750;2022-12-29T14:04:30;9.00;68.10
75621;DHT22;64574;48.506;-2.750;2022-12-29T14:07:18;9.00;68.30
75621;DHT22;64574;48.506;-2.750;2022-12-29T14:09:49;9.10;68.00
75621;DHT22;64574;48.506;-2.750;2022-12-29T14:12:20;9.20;68.00
75621;DHT22;64574;48.506;-2.750;2022-12-29T14:14:47;9.20;68.30
75621;DHT22;64574;48.506;-2.750;2022-12-29T14:17:19;9.20;68.70
75621;DHT22;64574;48.506;-2.750;2022-12-29T14:19:45;9.20;69.00
75621;DHT22;64574;48.506;-2.750;2022-12-29T14:22:12;9.20;68.90
75621;DHT22;64574;48.506;-2.750;2022-12-29T14:24:46;9.20;69.00
75621;DHT22;64574;48.506;-2.750;2022-12-29T14:34:49;9.20;69.30
75621;DHT22;64574;48.506;-2.750;2022-12-29T14:42:49;9.40;69.60
75621;DHT22;64574;48.506;-2.750;2022-12-29T14:47:49;9.20;70.20
75621;DHT22;64574;48.506;-2.750;2022-12-29T14:50:39;9.20;70.50
75621;DHT22;64574;48.506;-2.750;2022-12-29T14:53:06;9.20;70.80
75621;DHT22;64574;48.506;-2.750;2022-12-29T14:55:55;9.20;71.20
75621;DHT22;64574;48.506;-2.750;2022-12-29T15:00:52;9.20;71.90
75621;DHT22;64574;48.506;-2.750;2022-12-29T15:03:20;9.00;72.00
75621;DHT22;64574;48.506;-2.750;2022-12-29T15:05:50;8.90;71.90
75621;DHT22;64574;48.506;-2.750;2022-12-29T15:08:19;8.90;72.10
75621;DHT22;64574;48.506;-2.750;2022-12-29T15:10:53;8.90;72.50
75621;DHT22;64574;48.506;-2.750;2022-12-29T15:13:24;8.90;72.50
75621;DHT22;64574;48.506;-2.750;2022-12-29T15:15:51;9.00;72.20
75621;DHT22;64574;48.506;-2.750;2022-12-29T15:18:26;9.00;72.20
75621;DHT22;64574;48.506;-2.750;2022-12-29T15:20:54;9.10;72.10
75621;DHT22;64574;48.506;-2.750;2022-12-29T15:23:21;9.00;72.20
75621;DHT22;64574;48.506;-2.750;2022-12-29T15:26:07;9.00;72.50
75621;DHT22;64574;48.506;-2.750;2022-12-29T15:28:39;9.00;72.60
75621;DHT22;64574;48.506;-2.750;2022-12-29T15:31:20;9.00;72.50
75621;DHT22;64574;48.506;-2.750;2022-12-29T15:33:49;9.00;72.60
75621;DHT22;64574;48.506;-2.750;2022-12-29T15:36:26;8.90;72.70
75621;DHT22;64574;48.506;-2.750;2022-12-29T15:38:53;8.90;72.90
75621;DHT22;64574;48.506;-2.750;2022-12-29T15:41:26;8.80;72.80
75621;DHT22;64574;48.506;-2.750;2022-12-29T15:46:45;8.80;73.10
75621;DHT22;64574;48.506;-2.750;2022-12-29T15:49:14;8.70;73.10
75621;DHT22;64574;48.506;-2.750;2022-12-29T15:51:40;8.80;73.10
75621;DHT22;64574;48.506;-2.750;2022-12-29T15:54:12;8.80;73.10
75621;DHT22;64574;48.506;-2.750;2022-12-29T15:56:41;8.80;73.10
75621;DHT22;64574;48.506;-2.750;2022-12-29T15:59:26;8.70;73.00
75621;DHT22;64574;48.506;-2.750;2022-12-29T16:01:57;8.80;72.90
75621;DHT22;64574;48.506;-2.750;2022-12-29T16:04:27;8.70;73.00
75621;DHT22;64574;48.506;-2.750;2022-12-29T16:07:00;8.60;73.10
75621;DHT22;64574;48.506;-2.750;2022-12-29T16:09:35;8.60;73.00
75621;DHT22;64574;48.506;-2.750;2022-12-29T16:12:04;8.60;73.00
75621;DHT22;64574;48.506;-2.750;2022-12-29T16:17:05;8.60;72.70
75621;DHT22;64574;48.506;-2.750;2022-12-29T16:19:39;8.60;72.40
75621;DHT22;64574;48.506;-2.750;2022-12-29T16:22:15;8.60;72.40
75621;DHT22;64574;48.506;-2.750;2022-12-29T16:24:42;8.60;72.30
75621;DHT22;64574;48.506;-2.750;2022-12-29T16:27:21;8.60;72.00
75621;DHT22;64574;48.506;-2.750;2022-12-29T16:29:51;8.60;71.80
75621;DHT22;64574;48.506;-2.750;2022-12-29T16:34:50;8.60;71.90
75621;DHT22;64574;48.506;-2.750;2022-12-29T16:37:37;8.50;71.90
75621;DHT22;64574;48.506;-2.750;2022-12-29T16:40:25;8.50;71.90
75621;DHT22;64574;48.506;-2.750;2022-12-29T16:42:55;8.50;71.70
75621;DHT22;64574;48.506;-2.750;2022-12-29T16:50:31;8.30;71.80
75621;DHT22;64574;48.506;-2.750;2022-12-29T16:52:58;8.30;72.10
75621;DHT22;64574;48.506;-2.750;2022-12-29T16:55:23;8.40;71.90
75621;DHT22;64574;48.506;-2.750;2022-12-29T16:57:51;8.20;72.20
75621;DHT22;64574;48.506;-2.750;2022-12-29T17:00:32;8.30;72.40
75621;DHT22;64574;48.506;-2.750;2022-12-29T17:03:01;8.20;72.60
75621;DHT22;64574;48.506;-2.750;2022-12-29T17:05:27;8.30;72.40
75621;DHT22;64574;48.506;-2.750;2022-12-29T17:07:52;8.20;72.50
75621;DHT22;64574;48.506;-2.750;2022-12-29T17:10:19;8.20;72.80
75621;DHT22;64574;48.506;-2.750;2022-12-29T17:12:46;8.20;72.90
75621;DHT22;64574;48.506;-2.750;2022-12-29T17:15:25;8.10;73.20
75621;DHT22;64574;48.506;-2.750;2022-12-29T17:17:54;8.20;73.20
75621;DHT22;64574;48.506;-2.750;2022-12-29T17:22:49;8.10;73.60
75621;DHT22;64574;48.506;-2.750;2022-12-29T17:25:23;8.00;73.80
75621;DHT22;64574;48.506;-2.750;2022-12-29T17:27:56;8.00;74.00
75621;DHT22;64574;48.506;-2.750;2022-12-29T17:30:24;8.00;74.20
75621;DHT22;64574;48.506;-2.750;2022-12-29T17:33:03;8.00;74.20
75621;DHT22;64574;48.506;-2.750;2022-12-29T17:35:29;8.00;74.20
75621;DHT22;64574;48.506;-2.750;2022-12-29T17:37:54;7.90;74.40
75621;DHT22;64574;48.506;-2.750;2022-12-29T17:40:26;8.00;74.20
75621;DHT22;64574;48.506;-2.750;2022-12-29T17:42:54;7.90;74.30
75621;DHT22;64574;48.506;-2.750;2022-12-29T17:47:50;7.90;74.20
75621;DHT22;64574;48.506;-2.750;2022-12-29T17:50:19;7.80;74.50
75621;DHT22;64574;48.506;-2.750;2022-12-29T17:52:54;7.90;74.20
75621;DHT22;64574;48.506;-2.750;2022-12-29T17:55:22;7.80;74.50
75621;DHT22;64574;48.506;-2.750;2022-12-29T17:57:48;7.80;74.60
75621;DHT22;64574;48.506;-2.750;2022-12-29T18:00:22;7.80;74.60
75621;DHT22;64574;48.506;-2.750;2022-12-29T18:02:54;7.80;74.50
75621;DHT22;64574;48.506;-2.750;2022-12-29T18:05:21;7.80;74.50
75621;DHT22;64574;48.506;-2.750;2022-12-29T18:07:49;7.80;74.30
75621;DHT22;64574;48.506;-2.750;2022-12-29T18:10:15;7.80;74.30
75621;DHT22;64574;48.506;-2.750;2022-12-29T18:12:43;7.80;74.50
75621;DHT22;64574;48.506;-2.750;2022-12-29T18:15:24;7.80;74.70
75621;DHT22;64574;48.506;-2.750;2022-12-29T18:20:23;7.70;74.70
75621;DHT22;64574;48.506;-2.750;2022-12-29T18:22:48;7.80;74.50